Terminal Aerodrome Forecast
Issued by NWS

Home | Current Version | Previous Version | Text Only | Print | Product List | Glossary On
Versions: 1 2 3 4 5 6 7 8 9 10 11 12 13 14 15 16 17 18 19 20 21
000
FTUS43 KDLH 211730
TAFHYR
TAF
KHYR 211730Z 2118/2218 15007KT P6SM BKN140
     FM220300 VRB03KT P6SM BKN045
     FM220600 VRB03KT 3SM BR VCSH BKN025
     FM220800 VRB03KT 2SM BR VCTS BKN015CB
     FM221200 00000KT P6SM BKN003
     FM221500 VRB03KT P6SM BKN008=

USA.gov is the U.S. government's official web portal to all federal, state and local government web resources and services.